sensor_id;sensor_type;location;lat;lon;timestamp;pressure;altitude;pressure_sealevel;temperature;humidity
9423;BME280;65863;49.506;10.400;2023-01-30T00:00:05;98431.38;;;-3.88;89.71
9423;BME280;65863;49.506;10.400;2023-01-30T00:02:50;98470.53;;;-3.52;89.96
9423;BME280;65863;49.506;10.400;2023-01-30T00:05:34;98449.03;;;-3.54;89.59
9423;BME280;65863;49.506;10.400;2023-01-30T00:08:18;98550.31;;;-3.12;89.86
9423;BME280;65863;49.506;10.400;2023-01-30T00:11:04;98466.91;;;-3.27;89.63
9423;BME280;65863;49.506;10.400;2023-01-30T00:13:49;98289.94;;;-4.33;89.93
9423;BME280;65863;49.506;10.400;2023-01-30T00:16:34;98514.00;;;-2.84;89.76
9423;BME280;65863;49.506;10.400;2023-01-30T00:19:18;98431.84;;;-3.23;89.90
9423;BME280;65863;49.506;10.400;2023-01-30T00:22:02;98344.22;;;-3.84;89.66
9423;BME280;65863;49.506;10.400;2023-01-30T00:24:46;98347.78;;;-3.96;89.67
9423;BME280;65863;49.506;10.400;2023-01-30T00:27:30;98408.50;;;-3.18;89.84
9423;BME280;65863;49.506;10.400;2023-01-30T00:30:14;98368.09;;;-3.71;89.27
9423;BME280;65863;49.506;10.400;2023-01-30T00:32:58;98523.00;;;-2.52;89.57
9423;BME280;65863;49.506;10.400;2023-01-30T00:35:46;98506.78;;;-2.60;89.41
9423;BME280;65863;49.506;10.400;2023-01-30T00:38:30;98421.03;;;-3.39;89.15
9423;BME280;65863;49.506;10.400;2023-01-30T00:41:15;98488.44;;;-2.94;89.03
9423;BME280;65863;49.506;10.400;2023-01-30T00:43:59;98538.53;;;-2.27;88.95
9423;BME280;65863;49.506;10.400;2023-01-30T00:47:02;98432.22;;;-3.02;88.79
9423;BME280;65863;49.506;10.400;2023-01-30T00:49:49;98521.03;;;-2.52;88.31
9423;BME280;65863;49.506;10.400;2023-01-30T00:52:33;98499.25;;;-2.68;88.23
9423;BME280;65863;49.506;10.400;2023-01-30T00:55:17;98410.16;;;-3.21;87.74
9423;BME280;65863;49.506;10.400;2023-01-30T00:58:01;98557.22;;;-2.13;87.83
9423;BME280;65863;49.506;10.400;2023-01-30T01:00:45;98513.72;;;-2.46;87.47
9423;BME280;65863;49.506;10.400;2023-01-30T01:03:29;98536.59;;;-2.17;87.69
9423;BME280;65863;49.506;10.400;2023-01-30T01:06:13;98430.00;;;-2.95;87.27
9423;BME280;65863;49.506;10.400;2023-01-30T01:08:57;98475.44;;;-2.21;87.11
9423;BME280;65863;49.506;10.400;2023-01-30T01:11:41;98418.84;;;-2.50;87.05
9423;BME280;65863;49.506;10.400;2023-01-30T01:14:25;98414.84;;;-2.58;86.82
9423;BME280;65863;49.506;10.400;2023-01-30T01:17:10;98347.06;;;-3.12;86.94
9423;BME280;65863;49.506;10.400;2023-01-30T01:19:55;98347.19;;;-3.15;86.85
9423;BME280;65863;49.506;10.400;2023-01-30T01:22:39;98446.81;;;-2.43;86.45
9423;BME280;65863;49.506;10.400;2023-01-30T01:25:24;98359.38;;;-2.85;86.82
9423;BME280;65863;49.506;10.400;2023-01-30T01:28:08;98332.59;;;-3.03;86.74
9423;BME280;65863;49.506;10.400;2023-01-30T01:30:53;98328.00;;;-3.06;86.75
9423;BME280;65863;49.506;10.400;2023-01-30T01:33:37;98317.03;;;-2.97;86.50
9423;BME280;65863;49.506;10.400;2023-01-30T01:36:22;98389.22;;;-2.46;86.58
9423;BME280;65863;49.506;10.400;2023-01-30T01:39:06;98299.63;;;-3.03;86.64
9423;BME280;65863;49.506;10.400;2023-01-30T01:41:50;98410.78;;;-2.45;86.63
9423;BME280;65863;49.506;10.400;2023-01-30T01:50:51;98375.19;;;-2.39;87.05
9423;BME280;65863;49.506;10.400;2023-01-30T01:53:44;98375.94;;;-2.38;86.89
9423;BME280;65863;49.506;10.400;2023-01-30T01:56:33;98384.06;;;-2.26;86.92
9423;BME280;65863;49.506;10.400;2023-01-30T01:59:24;98429.81;;;-1.91;87.28
9423;BME280;65863;49.506;10.400;2023-01-30T02:02:11;98355.50;;;-2.19;87.21
9423;BME280;65863;49.506;10.400;2023-01-30T02:04:58;98361.59;;;-2.15;87.38
9423;BME280;65863;49.506;10.400;2023-01-30T02:08:01;98179.47;;;-3.21;87.00
9423;BME280;65863;49.506;10.400;2023-01-30T02:11:09;98392.94;;;-1.66;87.29
9423;BME280;65863;49.506;10.400;2023-01-30T02:13:55;98388.94;;;-1.65;87.03
9423;BME280;65863;49.506;10.400;2023-01-30T02:16:42;98332.09;;;-1.86;87.23
9423;BME280;65863;49.506;10.400;2023-01-30T02:19:47;98354.22;;;-1.62;87.20
9423;BME280;65863;49.506;10.400;2023-01-30T02:26:12;98247.63;;;-2.69;86.84
9423;BME280;65863;49.506;10.400;2023-01-30T02:32:18;98391.81;;;-1.41;86.74
9423;BME280;65863;49.506;10.400;2023-01-30T02:40:53;98281.19;;;-2.00;86.40
9423;BME280;65863;49.506;10.400;2023-01-30T02:49:55;98311.44;;;-1.82;86.74
9423;BME280;65863;49.506;10.400;2023-01-30T02:52:43;98328.53;;;-1.59;86.62
9423;BME280;65863;49.506;10.400;2023-01-30T02:55:28;98354.50;;;-1.42;86.52
9423;BME280;65863;49.506;10.400;2023-01-30T02:58:15;98243.63;;;-2.22;86.35
9423;BME280;65863;49.506;10.400;2023-01-30T03:10:35;98228.50;;;-2.08;86.68
9423;BME280;65863;49.506;10.400;2023-01-30T03:18:53;98289.97;;;-1.50;86.85
9423;BME280;65863;49.506;10.400;2023-01-30T03:21:42;98151.69;;;-2.58;86.57
9423;BME280;65863;49.506;10.400;2023-01-30T03:24:27;98258.19;;;-1.69;86.82
9423;BME280;65863;49.506;10.400;2023-01-30T03:27:13;98150.31;;;-2.35;86.57
9423;BME280;65863;49.506;10.400;2023-01-30T03:29:57;98279.91;;;-1.62;86.79
9423;BME280;65863;49.506;10.400;2023-01-30T03:32:42;98185.13;;;-2.22;86.95
9423;BME280;65863;49.506;10.400;2023-01-30T03:35:26;98298.78;;;-1.36;87.07
9423;BME280;65863;49.506;10.400;2023-01-30T03:38:11;98280.91;;;-1.50;86.58
9423;BME280;65863;49.506;10.400;2023-01-30T03:40:56;98153.25;;;-2.48;86.42
9423;BME280;65863;49.506;10.400;2023-01-30T03:43:40;98294.81;;;-1.35;86.82
9423;BME280;65863;49.506;10.400;2023-01-30T03:46:24;98312.53;;;-1.36;86.43
9423;BME280;65863;49.506;10.400;2023-01-30T03:49:08;98318.03;;;-1.27;86.61
9423;BME280;65863;49.506;10.400;2023-01-30T03:51:52;98245.03;;;-1.65;86.42
9423;BME280;65863;49.506;10.400;2023-01-30T03:54:36;98312.34;;;-1.24;86.78
9423;BME280;65863;49.506;10.400;2023-01-30T03:57:21;98277.88;;;-1.52;86.30
9423;BME280;65863;49.506;10.400;2023-01-30T04:00:08;98231.81;;;-1.85;86.55
9423;BME280;65863;49.506;10.400;2023-01-30T04:03:00;98317.09;;;-1.24;87.02
9423;BME280;65863;49.506;10.400;2023-01-30T04:05:44;98140.38;;;-2.32;86.50
9423;BME280;65863;49.506;10.400;2023-01-30T04:08:28;98275.00;;;-1.58;86.83
9423;BME280;65863;49.506;10.400;2023-01-30T04:11:13;98285.91;;;-1.30;86.71
9423;BME280;65863;49.506;10.400;2023-01-30T04:13:57;98320.41;;;-1.11;86.80
9423;BME280;65863;49.506;10.400;2023-01-30T04:16:41;98313.63;;;-1.00;86.51
9423;BME280;65863;49.506;10.400;2023-01-30T04:19:28;98282.97;;;-1.27;86.83
9423;BME280;65863;49.506;10.400;2023-01-30T04:22:12;98325.25;;;-0.96;86.22
9423;BME280;65863;49.506;10.400;2023-01-30T04:24:56;98302.97;;;-1.08;86.43
9423;BME280;65863;49.506;10.400;2023-01-30T04:27:41;98172.34;;;-2.01;85.93
9423;BME280;65863;49.506;10.400;2023-01-30T04:30:35;98309.97;;;-1.07;85.79
9423;BME280;65863;49.506;10.400;2023-01-30T04:33:50;98274.56;;;-1.23;85.66
9423;BME280;65863;49.506;10.400;2023-01-30T04:36:34;98173.44;;;-1.99;85.81
9423;BME280;65863;49.506;10.400;2023-01-30T04:39:19;98128.16;;;-2.40;85.52
9423;BME280;65863;49.506;10.400;2023-01-30T04:42:04;98269.50;;;-1.25;86.05
9423;BME280;65863;49.506;10.400;2023-01-30T04:44:55;98099.31;;;-2.45;86.20
9423;BME280;65863;49.506;10.400;2023-01-30T04:47:44;98269.19;;;-1.27;86.57
9423;BME280;65863;49.506;10.400;2023-01-30T04:50:28;98223.63;;;-1.61;86.37
9423;BME280;65863;49.506;10.400;2023-01-30T04:53:12;98126.25;;;-2.16;86.12
9423;BME280;65863;49.506;10.400;2023-01-30T04:55:57;98104.22;;;-2.49;86.64
9423;BME280;65863;49.506;10.400;2023-01-30T04:58:41;98211.50;;;-1.54;86.49
9423;BME280;65863;49.506;10.400;2023-01-30T05:01:37;98097.00;;;-2.37;86.66
9423;BME280;65863;49.506;10.400;2023-01-30T05:04:21;98192.66;;;-1.56;86.82
9423;BME280;65863;49.506;10.400;2023-01-30T05:07:05;98134.03;;;-2.05;86.74
9423;BME280;65863;49.506;10.400;2023-01-30T05:09:49;98185.16;;;-1.80;86.76
9423;BME280;65863;49.506;10.400;2023-01-30T05:12:33;98167.09;;;-1.81;86.85
9423;BME280;65863;49.506;10.400;2023-01-30T05:15:17;98144.97;;;-1.96;87.21
9423;BME280;65863;49.506;10.400;2023-01-30T05:18:01;98102.47;;;-2.28;86.88
9423;BME280;65863;49.506;10.400;2023-01-30T05:20:45;98222.34;;;-1.51;87.33
9423;BME280;65863;49.506;10.400;2023-01-30T05:23:29;98182.53;;;-1.74;87.18
9423;BME280;65863;49.506;10.400;2023-01-30T05:26:14;98247.59;;;-1.19;87.27
9423;BME280;65863;49.506;10.400;2023-01-30T05:28:58;98210.84;;;-1.49;87.31
9423;BME280;65863;49.506;10.400;2023-01-30T05:31:42;98127.44;;;-1.98;87.22
9423;BME280;65863;49.506;10.400;2023-01-30T05:34:26;98168.09;;;-1.69;87.33
9423;BME280;65863;49.506;10.400;2023-01-30T05:37:11;98211.66;;;-1.25;87.30
9423;BME280;65863;49.506;10.400;2023-01-30T05:39:56;98232.56;;;-1.18;87.36
9423;BME280;65863;49.506;10.400;2023-01-30T05:42:39;98236.59;;;-1.19;87.51
9423;BME280;65863;49.506;10.400;2023-01-30T05:45:23;98191.66;;;-1.34;87.56
9423;BME280;65863;49.506;10.400;2023-01-30T05:48:07;98201.56;;;-1.28;87.25
9423;BME280;65863;49.506;10.400;2023-01-30T05:50:53;98224.28;;;-1.09;87.35
9423;BME280;65863;49.506;10.400;2023-01-30T05:53:38;98144.06;;;-1.59;87.05
9423;BME280;65863;49.506;10.400;2023-01-30T05:56:22;98196.13;;;-1.13;87.20
9423;BME280;65863;49.506;10.400;2023-01-30T05:59:06;98178.88;;;-1.47;86.93
9423;BME280;65863;49.506;10.400;2023-01-30T06:01:53;98238.81;;;-1.08;86.87
9423;BME280;65863;49.506;10.400;2023-01-30T06:04:37;98226.72;;;-1.11;86.83
9423;BME280;65863;49.506;10.400;2023-01-30T06:07:21;98207.03;;;-1.18;86.94
9423;BME280;65863;49.506;10.400;2023-01-30T06:10:06;98233.28;;;-1.08;86.78
9423;BME280;65863;49.506;10.400;2023-01-30T06:12:50;98240.81;;;-1.09;86.78
9423;BME280;65863;49.506;10.400;2023-01-30T06:15:34;98235.88;;;-1.05;86.79
9423;BME280;65863;49.506;10.400;2023-01-30T06:18:18;98196.47;;;-1.20;86.72
9423;BME280;65863;49.506;10.400;2023-01-30T06:21:03;98172.50;;;-1.29;86.42
9423;BME280;65863;49.506;10.400;2023-01-30T06:23:47;98210.19;;;-1.11;86.70
9423;BME280;65863;49.506;10.400;2023-01-30T06:26:30;98227.72;;;-0.99;86.68
9423;BME280;65863;49.506;10.400;2023-01-30T06:29:14;98155.09;;;-1.35;87.11
9423;BME280;65863;49.506;10.400;2023-01-30T06:31:59;98105.59;;;-1.78;86.85
9423;BME280;65863;49.506;10.400;2023-01-30T06:34:42;98172.97;;;-1.30;86.98
9423;BME280;65863;49.506;10.400;2023-01-30T06:37:27;98225.13;;;-1.02;87.13
9423;BME280;65863;49.506;10.400;2023-01-30T06:40:11;98230.50;;;-0.99;87.37
9423;BME280;65863;49.506;10.400;2023-01-30T06:42:55;98250.38;;;-0.95;87.08
9423;BME280;65863;49.506;10.400;2023-01-30T06:45:40;98224.16;;;-0.90;87.26
9423;BME280;65863;49.506;10.400;2023-01-30T06:48:24;98120.53;;;-1.60;87.04
9423;BME280;65863;49.506;10.400;2023-01-30T06:51:08;98191.56;;;-1.16;87.52
9423;BME280;65863;49.506;10.400;2023-01-30T06:53:52;98128.13;;;-1.55;87.43
9423;BME280;65863;49.506;10.400;2023-01-30T06:56:36;98204.19;;;-1.09;87.64
9423;BME280;65863;49.506;10.400;2023-01-30T06:59:20;98172.63;;;-1.23;87.58
9423;BME280;65863;49.506;10.400;2023-01-30T07:02:04;98243.69;;;-0.79;87.48
9423;BME280;65863;49.506;10.400;2023-01-30T07:04:48;98217.09;;;-0.91;87.33
9423;BME280;65863;49.506;10.400;2023-01-30T07:07:32;98211.94;;;-0.98;87.15
9423;BME280;65863;49.506;10.400;2023-01-30T07:10:17;98183.44;;;-0.95;87.19
9423;BME280;65863;49.506;10.400;2023-01-30T07:13:02;98174.59;;;-0.99;87.00
9423;BME280;65863;49.506;10.400;2023-01-30T07:15:46;98174.13;;;-0.98;87.15
9423;BME280;65863;49.506;10.400;2023-01-30T07:18:30;98206.31;;;-0.80;86.98
9423;BME280;65863;49.506;10.400;2023-01-30T07:21:14;98127.84;;;-1.33;86.69
9423;BME280;65863;49.506;10.400;2023-01-30T07:23:58;98171.09;;;-1.00;87.00
9423;BME280;65863;49.506;10.400;2023-01-30T07:26:42;98158.59;;;-1.10;86.71
9423;BME280;65863;49.506;10.400;2023-01-30T07:29:26;98151.50;;;-1.02;86.35
9423;BME280;65863;49.506;10.400;2023-01-30T07:32:16;98134.06;;;-1.23;86.62
9423;BME280;65863;49.506;10.400;2023-01-30T07:35:01;98183.75;;;-0.93;86.67
9423;BME280;65863;49.506;10.400;2023-01-30T07:37:46;98105.00;;;-1.48;86.33
9423;BME280;65863;49.506;10.400;2023-01-30T07:40:31;98081.84;;;-1.66;86.42
9423;BME280;65863;49.506;10.400;2023-01-30T07:43:15;98149.63;;;-0.96;86.72
9423;BME280;65863;49.506;10.400;2023-01-30T07:45:59;98136.31;;;-0.82;86.82
9423;BME280;65863;49.506;10.400;2023-01-30T07:48:44;98149.84;;;-0.84;86.66
9423;BME280;65863;49.506;10.400;2023-01-30T07:51:28;98103.25;;;-0.97;86.54
9423;BME280;65863;49.506;10.400;2023-01-30T07:54:12;98072.78;;;-1.18;86.65
9423;BME280;65863;49.506;10.400;2023-01-30T07:56:56;98073.25;;;-1.19;86.50
9423;BME280;65863;49.506;10.400;2023-01-30T07:59:40;98144.13;;;-0.81;86.45
9423;BME280;65863;49.506;10.400;2023-01-30T08:02:25;98136.06;;;-0.84;86.42
9423;BME280;65863;49.506;10.400;2023-01-30T08:05:09;97962.13;;;-1.70;86.35
9423;BME280;65863;49.506;10.400;2023-01-30T08:07:56;98120.41;;;-0.63;86.65
9423;BME280;65863;49.506;10.400;2023-01-30T08:10:41;98109.66;;;-0.61;86.40
9423;BME280;65863;49.506;10.400;2023-01-30T08:13:25;98091.66;;;-0.87;86.22
9423;BME280;65863;49.506;10.400;2023-01-30T08:16:10;98049.44;;;-1.08;86.24
9423;BME280;65863;49.506;10.400;2023-01-30T08:18:54;98119.41;;;-0.75;86.32
9423;BME280;65863;49.506;10.400;2023-01-30T08:21:38;98107.63;;;-0.76;86.67
9423;BME280;65863;49.506;10.400;2023-01-30T08:24:22;98020.13;;;-1.35;86.53
9423;BME280;65863;49.506;10.400;2023-01-30T08:27:06;98164.16;;;-0.56;86.69
9423;BME280;65863;49.506;10.400;2023-01-30T08:29:50;98073.41;;;-0.99;86.99
9423;BME280;65863;49.506;10.400;2023-01-30T08:32:34;97993.16;;;-1.46;86.73
9423;BME280;65863;49.506;10.400;2023-01-30T08:35:18;97923.94;;;-1.93;86.88
9423;BME280;65863;49.506;10.400;2023-01-30T08:38:05;98120.97;;;-0.59;87.26
9423;BME280;65863;49.506;10.400;2023-01-30T08:40:51;98050.41;;;-0.96;87.48
9423;BME280;65863;49.506;10.400;2023-01-30T08:43:35;98042.94;;;-1.19;87.51
9423;BME280;65863;49.506;10.400;2023-01-30T08:46:20;98087.34;;;-1.02;87.70
9423;BME280;65863;49.506;10.400;2023-01-30T08:49:05;98111.44;;;-0.58;88.08
9423;BME280;65863;49.506;10.400;2023-01-30T08:51:49;98015.97;;;-1.30;88.55
9423;BME280;65863;49.506;10.400;2023-01-30T08:54:33;98010.06;;;-1.38;88.69
9423;BME280;65863;49.506;10.400;2023-01-30T08:57:17;98086.25;;;-0.81;88.96
9423;BME280;65863;49.506;10.400;2023-01-30T09:00:03;98062.38;;;-0.84;89.04
9423;BME280;65863;49.506;10.400;2023-01-30T09:02:52;98069.91;;;-0.84;89.24
9423;BME280;65863;49.506;10.400;2023-01-30T09:05:36;98111.34;;;-0.64;89.27
9423;BME280;65863;49.506;10.400;2023-01-30T09:08:20;98126.00;;;-0.58;89.50
9423;BME280;65863;49.506;10.400;2023-01-30T09:11:05;98116.41;;;-0.62;89.84
9423;BME280;65863;49.506;10.400;2023-01-30T09:13:49;98027.84;;;-1.24;89.88
9423;BME280;65863;49.506;10.400;2023-01-30T09:16:33;98120.03;;;-0.56;90.47
9423;BME280;65863;49.506;10.400;2023-01-30T09:19:17;98118.13;;;-0.50;90.15
9423;BME280;65863;49.506;10.400;2023-01-30T09:22:01;98080.38;;;-0.59;90.57
9423;BME280;65863;49.506;10.400;2023-01-30T09:24:46;98102.31;;;-0.35;90.66
9423;BME280;65863;49.506;10.400;2023-01-30T09:27:30;98049.84;;;-0.55;91.02
9423;BME280;65863;49.506;10.400;2023-01-30T09:30:16;98016.66;;;-0.76;90.65
9423;BME280;65863;49.506;10.400;2023-01-30T09:33:00;98085.22;;;-0.39;90.72
9423;BME280;65863;49.506;10.400;2023-01-30T09:35:48;98071.69;;;-0.22;90.88
9423;BME280;65863;49.506;10.400;2023-01-30T09:38:32;98104.78;;;-0.07;90.45
9423;BME280;65863;49.506;10.400;2023-01-30T09:44:46;98091.63;;;0.03;90.22
9423;BME280;65863;49.506;10.400;2023-01-30T09:47:48;98091.63;;;0.03;90.21
9423;BME280;65863;49.506;10.400;2023-01-30T09:54:10;98058.84;;;0.11;89.36
9423;BME280;65863;49.506;10.400;2023-01-30T09:57:10;98075.88;;;0.24;89.04
9423;BME280;65863;49.506;10.400;2023-01-30T10:02:52;98081.25;;;0.33;88.64
9423;BME280;65863;49.506;10.400;2023-01-30T10:05:48;98082.97;;;0.31;88.34
9423;BME280;65863;49.506;10.400;2023-01-30T10:08:48;98069.03;;;0.40;88.07
9423;BME280;65863;49.506;10.400;2023-01-30T10:21:19;98038.75;;;0.46;87.32
9423;BME280;65863;49.506;10.400;2023-01-30T10:26:54;98031.69;;;0.45;87.35
9423;BME280;65863;49.506;10.400;2023-01-30T10:29:43;97964.44;;;0.27;87.80
9423;BME280;65863;49.506;10.400;2023-01-30T10:35:19;97881.56;;;-0.40;87.33
9423;BME280;65863;49.506;10.400;2023-01-30T10:38:46;97980.88;;;0.37;87.57
9423;BME280;65863;49.506;10.400;2023-01-30T10:41:44;97926.09;;;0.09;87.40
9423;BME280;65863;49.506;10.400;2023-01-30T10:44:32;97953.13;;;0.05;87.52
9423;BME280;65863;49.506;10.400;2023-01-30T10:47:32;97952.50;;;0.15;87.51
9423;BME280;65863;49.506;10.400;2023-01-30T10:50:50;97990.94;;;0.40;87.68
9423;BME280;65863;49.506;10.400;2023-01-30T10:53:41;97960.84;;;0.21;87.50
9423;BME280;65863;49.506;10.400;2023-01-30T10:59:47;98030.78;;;0.54;87.17
9423;BME280;65863;49.506;10.400;2023-01-30T11:05:37;98031.94;;;0.67;87.27
9423;BME280;65863;49.506;10.400;2023-01-30T11:08:28;98031.56;;;0.54;87.21
9423;BME280;65863;49.506;10.400;2023-01-30T11:11:48;98037.06;;;0.75;87.10
9423;BME280;65863;49.506;10.400;2023-01-30T11:14:55;98050.13;;;0.74;86.91
9423;BME280;65863;49.506;10.400;2023-01-30T11:17:44;98022.84;;;0.61;86.88
9423;BME280;65863;49.506;10.400;2023-01-30T11:20:28;98068.63;;;0.68;86.96
9423;BME280;65863;49.506;10.400;2023-01-30T11:23:24;98012.34;;;0.45;86.80
9423;BME280;65863;49.506;10.400;2023-01-30T11:26:24;98019.66;;;0.48;86.86
9423;BME280;65863;49.506;10.400;2023-01-30T11:29:29;98054.88;;;0.74;87.16
9423;BME280;65863;49.506;10.400;2023-01-30T11:32:20;98059.31;;;0.65;86.90
9423;BME280;65863;49.506;10.400;2023-01-30T11:37:50;98051.84;;;0.72;87.10
9423;BME280;65863;49.506;10.400;2023-01-30T11:40:37;97952.97;;;0.14;87.17
9423;BME280;65863;49.506;10.400;2023-01-30T11:43:23;98026.28;;;0.77;87.16
9423;BME280;65863;49.506;10.400;2023-01-30T11:46:11;98025.88;;;0.63;87.55
9423;BME280;65863;49.506;10.400;2023-01-30T11:49:00;97943.19;;;0.13;87.47
9423;BME280;65863;49.506;10.400;2023-01-30T11:51:46;98025.75;;;0.52;87.22
9423;BME280;65863;49.506;10.400;2023-01-30T11:54:37;97997.16;;;0.34;87.34
9423;BME280;65863;49.506;10.400;2023-01-30T11:57:22;97975.00;;;0.29;87.69
9423;BME280;65863;49.506;10.400;2023-01-30T12:00:13;97997.25;;;0.66;88.10
9423;BME280;65863;49.506;10.400;2023-01-30T12:03:04;98012.47;;;0.77;88.08
9423;BME280;65863;49.506;10.400;2023-01-30T12:05:48;98018.88;;;0.68;87.98
9423;BME280;65863;49.506;10.400;2023-01-30T12:08:36;97969.31;;;0.38;87.98
9423;BME280;65863;49.506;10.400;2023-01-30T12:11:39;98048.56;;;0.94;88.17
9423;BME280;65863;49.506;10.400;2023-01-30T12:14:41;98055.34;;;0.93;87.76
9423;BME280;65863;49.506;10.400;2023-01-30T12:17:43;97856.00;;;-0.41;88.02
9423;BME280;65863;49.506;10.400;2023-01-30T12:20:54;98043.75;;;0.89;87.73
9423;BME280;65863;49.506;10.400;2023-01-30T12:26:52;97917.81;;;0.09;87.95
9423;BME280;65863;49.506;10.400;2023-01-30T12:29:50;97889.22;;;-0.09;88.07
9423;BME280;65863;49.506;10.400;2023-01-30T12:32:37;97896.56;;;-0.06;87.99
9423;BME280;65863;49.506;10.400;2023-01-30T12:35:30;97950.78;;;-0.03;88.14
9423;BME280;65863;49.506;10.400;2023-01-30T12:41:55;98057.00;;;0.84;88.37
9423;BME280;65863;49.506;10.400;2023-01-30T12:45:18;98064.63;;;0.90;88.42
9423;BME280;65863;49.506;10.400;2023-01-30T12:54:59;98082.69;;;0.91;89.03
9423;BME280;65863;49.506;10.400;2023-01-30T13:07:32;97971.06;;;0.15;89.13
9423;BME280;65863;49.506;10.400;2023-01-30T13:13:22;98080.44;;;0.89;90.04
9423;BME280;65863;49.506;10.400;2023-01-30T13:19:04;98035.88;;;1.08;90.10
9423;BME280;65863;49.506;10.400;2023-01-30T13:22:22;98069.72;;;1.23;89.94
9423;BME280;65863;49.506;10.400;2023-01-30T13:28:06;98077.66;;;1.10;89.57
9423;BME280;65863;49.506;10.400;2023-01-30T13:30:55;98061.19;;;1.00;90.17
9423;BME280;65863;49.506;10.400;2023-01-30T13:33:41;98031.94;;;0.88;89.76
9423;BME280;65863;49.506;10.400;2023-01-30T13:36:36;97958.50;;;0.14;89.97
9423;BME280;65863;49.506;10.400;2023-01-30T13:39:34;97901.66;;;-0.19;89.62
9423;BME280;65863;49.506;10.400;2023-01-30T13:42:30;98066.66;;;0.95;90.07
9423;BME280;65863;49.506;10.400;2023-01-30T13:45:28;98045.75;;;0.88;89.86
9423;BME280;65863;49.506;10.400;2023-01-30T13:48:37;98026.00;;;0.75;89.88
9423;BME280;65863;49.506;10.400;2023-01-30T14:00:31;98057.25;;;0.81;90.74
9423;BME280;65863;49.506;10.400;2023-01-30T14:06:09;98091.00;;;0.91;90.40
9423;BME280;65863;49.506;10.400;2023-01-30T14:08:54;98044.91;;;0.82;90.60
9423;BME280;65863;49.506;10.400;2023-01-30T14:11:56;98071.44;;;0.94;90.77
9423;BME280;65863;49.506;10.400;2023-01-30T14:14:42;98077.53;;;0.98;90.54
9423;BME280;65863;49.506;10.400;2023-01-30T14:20:47;98080.06;;;1.02;90.86
9423;BME280;65863;49.506;10.400;2023-01-30T14:23:33;98053.94;;;1.03;90.64
9423;BME280;65863;49.506;10.400;2023-01-30T14:37:50;98042.34;;;1.25;89.56
9423;BME280;65863;49.506;10.400;2023-01-30T14:40:40;98060.53;;;1.32;88.61
9423;BME280;65863;49.506;10.400;2023-01-30T14:49:04;98070.75;;;1.26;88.25
9423;BME280;65863;49.506;10.400;2023-01-30T14:51:56;98061.69;;;0.99;88.27
9423;BME280;65863;49.506;10.400;2023-01-30T14:54:43;98096.03;;;1.13;88.14
9423;BME280;65863;49.506;10.400;2023-01-30T14:57:32;98082.50;;;0.94;88.24
9423;BME280;65863;49.506;10.400;2023-01-30T15:00:19;98072.19;;;0.95;88.54
9423;BME280;65863;49.506;10.400;2023-01-30T15:03:08;97959.13;;;0.03;88.65
9423;BME280;65863;49.506;10.400;2023-01-30T15:05:58;98118.06;;;1.07;89.07
9423;BME280;65863;49.506;10.400;2023-01-30T15:08:43;98139.50;;;1.12;89.03
9423;BME280;65863;49.506;10.400;2023-01-30T15:11:30;98047.91;;;0.58;89.35
9423;BME280;65863;49.506;10.400;2023-01-30T15:14:21;98137.28;;;1.16;89.48
9423;BME280;65863;49.506;10.400;2023-01-30T15:17:21;98122.50;;;0.99;89.82
9423;BME280;65863;49.506;10.400;2023-01-30T15:23:21;98155.75;;;1.25;90.28
9423;BME280;65863;49.506;10.400;2023-01-30T15:32:36;98151.63;;;1.15;90.03
9423;BME280;65863;49.506;10.400;2023-01-30T15:35:24;98172.88;;;1.29;90.16
9423;BME280;65863;49.506;10.400;2023-01-30T15:38:37;98179.41;;;1.26;90.43
9423;BME280;65863;49.506;10.400;2023-01-30T15:41:21;98118.31;;;0.83;90.07
9423;BME280;65863;49.506;10.400;2023-01-30T15:50:29;98203.19;;;1.18;90.13
9423;BME280;65863;49.506;10.400;2023-01-30T15:53:14;98146.84;;;0.74;90.17
9423;BME280;65863;49.506;10.400;2023-01-30T15:56:06;98162.41;;;0.92;90.02
9423;BME280;65863;49.506;10.400;2023-01-30T15:58:52;98198.47;;;1.03;90.13
9423;BME280;65863;49.506;10.400;2023-01-30T16:01:37;98186.66;;;1.03;90.38
9423;BME280;65863;49.506;10.400;2023-01-30T16:04:26;98129.97;;;0.51;90.41
9423;BME280;65863;49.506;10.400;2023-01-30T16:07:29;98169.22;;;0.76;90.74
9423;BME280;65863;49.506;10.400;2023-01-30T16:10:22;98211.53;;;1.03;90.57
9423;BME280;65863;49.506;10.400;2023-01-30T16:13:07;98233.16;;;1.05;90.62
9423;BME280;65863;49.506;10.400;2023-01-30T16:19:03;98224.53;;;0.97;90.71
9423;BME280;65863;49.506;10.400;2023-01-30T16:21:49;98216.09;;;0.85;91.08
9423;BME280;65863;49.506;10.400;2023-01-30T16:24:35;98161.50;;;0.45;91.10
9423;BME280;65863;49.506;10.400;2023-01-30T16:27:28;98221.88;;;0.88;91.21
9423;BME280;65863;49.506;10.400;2023-01-30T16:30:19;98243.50;;;0.89;91.47
9423;BME280;65863;49.506;10.400;2023-01-30T16:33:05;98252.25;;;1.02;91.63
9423;BME280;65863;49.506;10.400;2023-01-30T16:35:49;98250.47;;;0.99;91.55
9423;BME280;65863;49.506;10.400;2023-01-30T16:38:38;98258.34;;;1.07;91.48
9423;BME280;65863;49.506;10.400;2023-01-30T16:41:36;98265.09;;;1.06;91.78
9423;BME280;65863;49.506;10.400;2023-01-30T16:44:30;98273.50;;;0.96;91.41
9423;BME280;65863;49.506;10.400;2023-01-30T16:47:26;98298.78;;;1.04;91.46
9423;BME280;65863;49.506;10.400;2023-01-30T16:50:21;98263.09;;;0.71;91.49
9423;BME280;65863;49.506;10.400;2023-01-30T16:53:11;98226.75;;;0.57;91.34
9423;BME280;65863;49.506;10.400;2023-01-30T16:56:01;98293.31;;;1.10;91.74
9423;BME280;65863;49.506;10.400;2023-01-30T16:58:52;98309.69;;;1.13;91.76
9423;BME280;65863;49.506;10.400;2023-01-30T17:01:39;98218.44;;;0.57;91.34
9423;BME280;65863;49.506;10.400;2023-01-30T17:04:27;98312.34;;;1.23;91.51
9423;BME280;65863;49.506;10.400;2023-01-30T17:07:31;98243.09;;;0.76;91.43
9423;BME280;65863;49.506;10.400;2023-01-30T17:13:43;98309.25;;;1.15;91.40
9423;BME280;65863;49.506;10.400;2023-01-30T17:16:33;98160.03;;;0.14;91.17
9423;BME280;65863;49.506;10.400;2023-01-30T17:19:17;98313.44;;;1.10;90.98
9423;BME280;65863;49.506;10.400;2023-01-30T17:22:04;98314.88;;;1.06;91.19
9423;BME280;65863;49.506;10.400;2023-01-30T17:24:48;98299.66;;;0.95;90.87
9423;BME280;65863;49.506;10.400;2023-01-30T17:27:32;98290.31;;;0.93;91.29
9423;BME280;65863;49.506;10.400;2023-01-30T17:30:17;98313.00;;;0.97;90.55
9423;BME280;65863;49.506;10.400;2023-01-30T17:33:02;98306.69;;;0.96;90.57
9423;BME280;65863;49.506;10.400;2023-01-30T17:35:46;98299.75;;;0.86;90.75